Time;durP1;ratioP1;P1;durP2;ratioP2;P2;SDS_P1;SDS_P2;PMS_P1;PMS_P2;Temp;Humidity;BMP_temperature;BMP_pressure;BME280_temperature;BME280_humidity;BME280_pressure;Samples;Min_cycle;Max_cycle;Signal;HPM_P1;HPM_P2
2021/04/22 00:00:21;;;;;;;11.10;8.20;;;;;;;8.17;73.15;96374.36;1697140;83;21190;-85
2021/04/22 00:02:51;;;;;;;12.45;8.90;;;;;;;8.21;72.80;96384.11;1685948;83;21179;-84
2021/04/22 00:05:30;;;;;;;13.08;8.90;;;;;;;8.23;72.71;96374.06;1673173;83;21131;-85
2021/04/22 00:07:58;;;;;;;10.10;8.10;;;;;;;8.23;72.56;96370.09;1681766;83;21179;-84
2021/04/22 00:10:37;;;;;;;12.35;9.00;;;;;;;8.23;72.48;96366.14;1693237;83;21139;-85
2021/04/22 00:13:04;;;;;;;13.32;9.50;;;;;;;8.21;72.44;96368.80;1695774;83;21177;-84
2021/04/22 00:15:31;;;;;;;11.90;9.15;;;;;;;8.20;72.41;96371.17;1682017;83;21163;-85
2021/04/22 00:17:59;;;;;;;11.55;8.73;;;;;;;8.19;72.34;96372.23;1694826;83;21152;-84
2021/04/22 00:20:27;;;;;;;12.15;8.30;;;;;;;8.17;72.35;96366.44;1684851;83;21187;-85
2021/04/22 00:22:55;;;;;;;12.90;9.30;;;;;;;8.16;72.31;96369.58;1698731;83;21138;-85
2021/04/22 00:25:22;;;;;;;12.88;9.40;;;;;;;8.13;72.30;96361.41;1700411;83;21150;-84
2021/04/22 00:27:49;;;;;;;12.47;8.63;;;;;;;8.10;72.24;96365.37;1689496;83;21507;-85
2021/04/22 00:30:19;;;;;;;10.53;8.20;;;;;;;8.10;72.29;96367.23;1698258;83;21151;-84
2021/04/22 00:32:46;;;;;;;10.45;7.83;;;;;;;8.07;72.34;96367.24;1683709;83;21175;-84
2021/04/22 00:35:13;;;;;;;13.68;8.75;;;;;;;8.03;72.24;96365.67;1696167;83;21130;-84
2021/04/22 00:37:41;;;;;;;13.10;8.68;;;;;;;7.98;72.29;96356.42;1686298;83;21182;-84
2021/04/22 00:40:16;;;;;;;13.68;9.43;;;;;;;7.94;72.49;96357.23;1691340;83;21160;-84
2021/04/22 00:42:43;;;;;;;12.58;9.43;;;;;;;7.88;72.72;96355.64;1692611;83;21127;-85
2021/04/22 00:45:12;;;;;;;11.75;9.15;;;;;;;7.82;72.90;96355.41;1694835;83;21174;-85
2021/04/22 00:47:39;;;;;;;13.28;9.13;;;;;;;7.76;73.07;96359.13;1696447;83;21162;-85
2021/04/22 00:50:11;;;;;;;11.30;8.78;;;;;;;7.75;73.25;96359.65;1680826;83;21550;-85
2021/04/22 00:52:40;;;;;;;11.93;9.63;;;;;;;7.75;73.29;96360.97;1693185;83;21141;-85
2021/04/22 00:55:09;;;;;;;12.65;8.93;;;;;;;7.76;73.37;96355.16;1695445;83;21179;-85
2021/04/22 00:57:36;;;;;;;12.68;8.90;;;;;;;7.74;73.60;96350.95;1685734;83;21506;-84
2021/04/22 01:00:08;;;;;;;11.65;8.53;;;;;;;7.79;73.64;96349.34;1682313;83;21147;-85
2021/04/22 01:02:38;;;;;;;13.00;8.93;;;;;;;7.81;73.54;96349.87;1673103;83;21130;-84
2021/04/22 01:05:17;;;;;;;12.10;8.40;;;;;;;7.82;73.47;96348.28;1671245;83;21277;-85
2021/04/22 01:07:45;;;;;;;11.55;8.80;;;;;;;7.82;73.55;96348.81;1673969;83;21155;-84
2021/04/22 01:10:15;;;;;;;13.22;8.95;;;;;;;7.83;73.67;96348.53;1676090;83;21288;-85
2021/04/22 01:12:43;;;;;;;12.50;8.40;;;;;;;7.86;73.65;96351.17;1696960;83;21175;-85
2021/04/22 01:15:16;;;;;;;12.65;9.50;;;;;;;7.88;73.49;96355.15;1675347;83;21173;-84
2021/04/22 01:17:45;;;;;;;11.50;8.05;;;;;;;7.93;73.56;96355.66;1675076;83;21139;-84
2021/04/22 01:20:18;;;;;;;13.45;9.25;;;;;;;7.94;73.62;96359.88;1685265;83;21155;-84
2021/04/22 01:22:48;;;;;;;14.18;9.55;;;;;;;7.96;73.40;96356.44;1698063;83;21124;-84
2021/04/22 01:25:32;;;;;;;12.75;8.95;;;;;;;7.97;73.29;96361.97;1701917;83;21131;-85
2021/04/22 01:28:01;;;;;;;12.15;8.28;;;;;;;7.97;73.21;96362.77;1691295;83;21151;-85
2021/04/22 01:30:39;;;;;;;12.33;9.50;;;;;;;7.93;73.17;96363.05;1700753;82;21153;-84
2021/04/22 01:33:09;;;;;;;13.05;9.23;;;;;;;7.90;73.17;96364.91;1716896;82;21122;-84
2021/04/22 01:35:39;;;;;;;12.05;8.90;;;;;;;7.87;73.16;96363.30;1704398;82;21184;-85
2021/04/22 01:38:10;;;;;;;12.23;8.98;;;;;;;7.83;73.22;96360.94;1702398;82;21151;-85
2021/04/22 01:40:38;;;;;;;12.50;8.88;;;;;;;7.78;73.20;96362.28;1717066;82;21134;-85
2021/04/22 01:43:07;;;;;;;11.57;8.55;;;;;;;7.76;73.23;96361.23;1713964;82;21128;-85
2021/04/22 01:45:35;;;;;;;10.72;7.90;;;;;;;7.72;73.46;96354.88;1721929;83;21519;-85
2021/04/22 01:48:04;;;;;;;13.55;9.00;;;;;;;7.71;73.50;96362.01;1718199;82;21127;-85
2021/04/22 01:50:33;;;;;;;13.08;8.98;;;;;;;7.70;73.48;96361.75;1712722;82;21124;-85
2021/04/22 01:53:00;;;;;;;11.10;8.30;;;;;;;7.71;73.62;96362.53;1763681;80;21123;-84
2021/04/22 01:55:35;;;;;;;11.53;8.95;;;;;;;7.71;73.64;96365.97;1700710;83;21370;-85
2021/04/22 01:58:04;;;;;;;10.55;8.10;;;;;;;7.70;73.69;96355.15;1711341;81;21120;-84
2021/04/22 02:00:36;;;;;;;13.20;8.98;;;;;;;7.69;73.78;96350.93;1717190;81;21182;-84
2021/04/22 02:03:08;;;;;;;13.00;8.33;;;;;;;7.69;73.79;96354.89;1680279;83;21170;-84
2021/04/22 02:05:36;;;;;;;13.78;9.38;;;;;;;7.69;73.79;96350.93;1700562;83;21093;-84
2021/04/22 02:08:06;;;;;;;11.70;8.53;;;;;;;7.69;73.84;96352.25;1721749;82;21185;-84
2021/04/22 02:10:35;;;;;;;10.90;9.20;;;;;;;7.69;73.93;96346.97;1733615;82;21182;-84
2021/04/22 02:13:04;;;;;;;10.75;8.65;;;;;;;7.65;73.87;96339.34;1736211;81;21114;-84
2021/04/22 02:15:32;;;;;;;13.72;9.48;;;;;;;7.63;73.93;96334.06;1734367;83;21524;-85
2021/04/22 02:18:00;;;;;;;13.85;8.58;;;;;;;7.61;74.01;96341.46;1737940;82;21143;-84
2021/04/22 02:20:27;;;;;;;13.98;9.03;;;;;;;7.58;73.91;96341.44;1717948;82;21131;-85
2021/04/22 02:22:55;;;;;;;12.53;9.38;;;;;;;7.57;73.97;96338.54;1768305;81;21179;-85
2021/04/22 02:25:26;;;;;;;11.70;8.80;;;;;;;7.57;74.01;96343.02;1768359;80;21119;-85
2021/04/22 02:27:55;;;;;;;11.55;8.63;;;;;;;7.58;73.99;96340.65;1757976;80;21546;-85
2021/04/22 02:30:27;;;;;;;12.13;8.60;;;;;;;7.56;74.01;96339.59;1708031;83;21170;-85
2021/04/22 02:32:55;;;;;;;15.35;9.43;;;;;;;7.54;74.08;96337.75;1716094;82;21111;-85
2021/04/22 02:35:27;;;;;;;12.90;8.75;;;;;;;7.54;74.23;96331.16;1715062;84;21194;-85
2021/04/22 02:37:56;;;;;;;13.13;8.43;;;;;;;7.53;74.13;96337.49;1703053;84;21087;-85
2021/04/22 02:40:28;;;;;;;11.97;8.93;;;;;;;7.52;74.16;96334.59;1705913;82;21157;-84
2021/04/22 02:42:57;;;;;;;13.32;8.60;;;;;;;7.52;74.21;96330.64;1735673;81;21159;-84
2021/04/22 02:45:32;;;;;;;12.47;8.27;;;;;;;7.54;74.23;96334.33;1703103;84;21153;-85
2021/04/22 02:48:00;;;;;;;12.82;9.25;;;;;;;7.55;74.31;96328.78;1716495;82;21139;-85
2021/04/22 02:50:32;;;;;;;12.60;8.68;;;;;;;7.57;74.26;96328.52;1715412;82;21135;-85
2021/04/22 02:53:01;;;;;;;13.25;8.63;;;;;;;7.59;74.32;96331.67;1703387;82;21136;-85
2021/04/22 02:55:28;;;;;;;11.43;8.63;;;;;;;7.60;74.26;96334.08;1734128;81;21506;-84
2021/04/22 02:57:55;;;;;;;11.85;8.53;;;;;;;7.61;74.25;96331.70;1730824;81;21169;-85
2021/04/22 03:00:24;;;;;;;12.35;9.40;;;;;;;7.64;74.28;96330.38;1722947;81;21167;-85
2021/04/22 03:02:51;;;;;;;11.65;8.70;;;;;;;7.67;74.10;96330.62;1725068;81;21119;-85
2021/04/22 03:05:19;;;;;;;11.18;8.23;;;;;;;7.67;74.05;96333.27;1727978;81;21163;-84
2021/04/22 03:07:47;;;;;;;12.47;9.55;;;;;;;7.65;74.01;96329.31;1734394;82;21519;-85
2021/04/22 03:10:18;;;;;;;14.00;9.38;;;;;;;7.64;74.03;96328.52;1731293;81;21178;-85
2021/04/22 03:12:46;;;;;;;12.98;9.05;;;;;;;7.62;74.08;96328.00;1731324;81;21139;-85
2021/04/22 03:15:16;;;;;;;14.10;9.08;;;;;;;7.64;74.12;96332.48;1718986;82;21148;-84
2021/04/22 03:17:45;;;;;;;12.73;8.28;;;;;;;7.63;74.15;96332.22;1733969;82;21136;-84
2021/04/22 03:20:15;;;;;;;10.90;7.95;;;;;;;7.64;74.19;96333.80;1731073;81;21164;-84
2021/04/22 03:22:42;;;;;;;12.75;8.38;;;;;;;7.64;74.22;96331.16;1730019;81;21161;-84
2021/04/22 03:25:13;;;;;;;11.85;8.95;;;;;;;7.63;74.15;96336.17;1725380;81;21532;-84
2021/04/22 03:27:40;;;;;;;;;;;;;;;7.63;74.21;96338.02;1735410;82;21186;-84
2021/04/22 03:30:12;;;;;;;10.78;7.58;;;;;;;7.61;74.16;96345.41;1721861;81;20189;-84
2021/04/22 03:32:40;;;;;;;9.68;7.10;;;;;;;7.57;74.22;96347.77;1731577;81;21496;-85
2021/04/22 03:35:10;;;;;;;9.70;6.90;;;;;;;7.56;74.21;96353.31;1728318;82;21208;-84
2021/04/22 03:37:38;;;;;;;11.73;8.50;;;;;;;7.52;74.25;96354.38;1717585;81;21518;-84
2021/04/22 03:40:09;;;;;;;10.38;7.30;;;;;;;7.52;74.37;96354.91;1728215;81;21475;-85
2021/04/22 03:42:37;;;;;;;12.65;8.53;;;;;;;7.53;74.39;96359.13;1731458;81;21132;-84
2021/04/22 03:45:07;;;;;;;11.40;7.87;;;;;;;7.56;74.51;96358.06;1713657;83;21139;-84
2021/04/22 03:47:35;;;;;;;10.13;7.28;;;;;;;7.57;74.67;96350.94;1731461;81;21136;-84
2021/04/22 03:50:06;;;;;;;9.85;6.90;;;;;;;7.57;74.81;96345.13;1724182;81;21198;-85
2021/04/22 03:52:34;;;;;;;8.90;6.65;;;;;;;7.55;74.91;96345.14;1712219;83;21526;-84
2021/04/22 03:55:03;;;;;;;11.75;8.08;;;;;;;7.54;75.02;96357.54;1712496;81;21167;-84
2021/04/22 03:57:29;;;;;;;13.28;8.45;;;;;;;7.53;74.99;96355.17;1718574;81;21159;-85
2021/04/22 03:59:57;;;;;;;12.73;8.38;;;;;;;7.53;75.02;96361.77;1735112;82;21536;-84
2021/04/22 04:02:24;;;;;;;12.13;9.20;;;;;;;7.49;75.00;96362.03;1705992;84;21487;-84
2021/04/22 04:04:51;;;;;;;11.80;8.95;;;;;;;7.42;75.04;96360.97;1694109;83;21115;-84
2021/04/22 04:07:18;;;;;;;11.57;8.15;;;;;;;7.37;75.14;96361.77;1694847;84;21189;-84
2021/04/22 04:09:45;;;;;;;9.28;7.15;;;;;;;7.34;75.19;96362.83;1699374;83;21171;-85
2021/04/22 04:12:12;;;;;;;9.48;6.95;;;;;;;7.31;75.24;96365.44;1705587;84;21149;-84
2021/04/22 04:14:39;;;;;;;11.55;7.15;;;;;;;7.22;75.40;96365.71;1694062;84;21147;-84
2021/04/22 04:17:06;;;;;;;9.80;6.53;;;;;;;7.18;75.37;96363.84;1688313;84;21522;-84
2021/04/22 04:19:33;;;;;;;10.43;6.90;;;;;;;7.20;75.65;96360.44;1703977;83;21503;-84
2021/04/22 04:22:00;;;;;;;9.90;7.92;;;;;;;7.20;75.82;96356.48;1721357;83;21115;-85
2021/04/22 04:24:27;;;;;;;10.08;7.20;;;;;;;7.21;75.92;96366.77;1727066;83;21143;-85
2021/04/22 04:26:54;;;;;;;11.85;7.10;;;;;;;7.34;76.11;96363.61;1726910;82;21499;-85
2021/04/22 04:29:21;;;;;;;9.95;6.87;;;;;;;7.93;76.64;96361.72;1726510;83;21467;-84
2021/04/22 04:31:49;;;;;;;11.20;7.12;;;;;;;8.89;76.90;96361.94;1708790;84;21098;-85
2021/04/22 04:34:16;;;;;;;10.25;7.12;;;;;;;9.88;76.08;96368.35;1705192;84;21118;-85
2021/04/22 04:36:46;;;;;;;12.15;8.23;;;;;;;10.67;74.73;96368.30;1747255;81;21165;-85
2021/04/22 04:39:15;;;;;;;10.65;7.80;;;;;;;11.48;72.65;96364.27;1755242;81;21119;-85
2021/04/22 04:41:43;;;;;;;10.28;8.30;;;;;;;11.88;69.81;96362.31;1750871;80;21120;-85
2021/04/22 04:44:11;;;;;;;11.30;8.88;;;;;;;11.98;67.16;96360.02;1760317;81;21869;-85
2021/04/22 04:46:40;;;;;;;12.00;8.55;;;;;;;11.95;66.92;96362.45;1752148;81;21131;-85
2021/04/22 04:49:08;;;;;;;13.68;9.70;;;;;;;11.73;66.83;96369.17;1761803;80;21188;-85
2021/04/22 04:51:36;;;;;;;13.40;9.95;;;;;;;11.78;66.79;96365.64;1743623;80;21110;-85
2021/04/22 04:54:05;;;;;;;12.60;9.15;;;;;;;11.97;65.58;96365.63;1761165;80;21123;-85
2021/04/22 04:56:32;;;;;;;11.55;9.55;;;;;;;11.74;65.96;96357.47;1760060;81;21111;-85
2021/04/22 04:58:59;;;;;;;12.37;9.28;;;;;;;11.83;65.96;96362.41;1760069;81;21497;-85
2021/04/22 05:01:26;;;;;;;13.68;9.73;;;;;;;12.97;65.44;96358.08;1756830;81;21585;-84
2021/04/22 05:03:54;;;;;;;12.03;9.18;;;;;;;14.04;64.52;96368.89;1760602;81;21157;-85
2021/04/22 05:06:21;;;;;;;12.23;9.05;;;;;;;14.84;62.05;96371.04;1750587;81;21176;-85
2021/04/22 05:08:48;;;;;;;12.13;8.98;;;;;;;14.38;60.69;96378.95;1743713;81;21190;-85
2021/04/22 05:11:15;;;;;;;11.15;8.73;;;;;;;13.66;59.81;96370.65;1696108;84;21184;-84
2021/04/22 05:13:42;;;;;;;11.48;8.83;;;;;;;13.71;60.42;96366.28;1775417;80;21751;-85
2021/04/22 05:16:09;;;;;;;11.68;9.25;;;;;;;13.93;60.24;96367.58;1765183;81;21318;-85
2021/04/22 05:18:37;;;;;;;11.30;8.28;;;;;;;14.42;60.50;96374.57;1758692;80;21466;-85
2021/04/22 05:21:04;;;;;;;10.45;8.30;;;;;;;15.52;58.19;96371.42;1765350;80;21258;-85
2021/04/22 05:23:32;;;;;;;11.38;8.23;;;;;;;16.39;56.30;96364.02;1765829;81;21288;-85
2021/04/22 05:25:59;;;;;;;10.08;7.40;;;;;;;17.05;55.38;96367.02;1781903;80;21245;-85
2021/04/22 05:28:27;;;;;;;9.55;7.80;;;;;;;17.61;54.05;96354.12;1765561;81;21303;-85
2021/04/22 05:30:54;;;;;;;10.10;7.58;;;;;;;17.87;52.10;96360.59;1767137;80;21511;-85
2021/04/22 05:33:21;;;;;;;8.80;7.62;;;;;;;18.34;51.73;96373.91;1774022;80;21305;-85
2021/04/22 05:35:48;;;;;;;9.45;7.08;;;;;;;19.05;51.08;96361.17;1768950;80;21184;-85
2021/04/22 05:38:16;;;;;;;9.38;7.00;;;;;;;19.44;47.28;96370.39;1763614;81;21173;-85
2021/04/22 05:40:43;;;;;;;8.58;7.28;;;;;;;19.68;47.99;96363.59;1768553;80;21145;-83
2021/04/22 05:43:11;;;;;;;9.30;7.45;;;;;;;20.10;47.44;96365.85;1765652;80;21512;-83
2021/04/22 05:45:39;;;;;;;8.75;6.90;;;;;;;20.34;46.27;96368.97;1783478;80;21150;-83
2021/04/22 05:48:08;;;;;;;8.23;7.00;;;;;;;20.77;45.38;96373.50;1769253;80;21297;-83
2021/04/22 05:50:35;;;;;;;9.28;7.40;;;;;;;21.12;45.44;96373.55;1762196;80;21498;-83
2021/04/22 05:53:03;;;;;;;9.18;7.87;;;;;;;21.40;44.27;96372.05;1765611;81;21570;-83
2021/04/22 05:55:30;;;;;;;7.92;6.78;;;;;;;21.44;43.93;96381.56;1770450;80;21134;-82
2021/04/22 05:58:01;;;;;;;9.20;7.08;;;;;;;21.61;42.82;96375.74;1765328;81;21632;-82
2021/04/22 06:00:30;;;;;;;10.82;6.90;;;;;;;21.97;41.58;96383.20;1758628;80;21126;-82
2021/04/22 06:02:59;;;;;;;9.15;6.45;;;;;;;20.97;41.10;96381.88;1752367;81;21114;-82
2021/04/22 06:05:27;;;;;;;7.72;6.42;;;;;;;20.23;40.09;96380.02;1765628;81;21229;-82
2021/04/22 06:07:55;;;;;;;9.03;7.37;;;;;;;18.74;41.32;96397.47;1756246;81;21189;-82
2021/04/22 06:10:23;;;;;;;7.83;6.03;;;;;;;17.97;43.59;96393.71;1762522;80;21156;-82
2021/04/22 06:12:50;;;;;;;8.68;6.53;;;;;;;18.20;44.70;96392.22;1765623;81;21644;-82
2021/04/22 06:15:21;;;;;;;7.45;6.65;;;;;;;18.49;44.73;96399.31;1765961;81;21092;-82
2021/04/22 06:17:49;;;;;;;9.90;6.53;;;;;;;18.75;44.09;96408.98;1767383;80;21111;-82
2021/04/22 06:20:21;;;;;;;9.75;7.08;;;;;;;16.87;44.38;96409.94;1765928;80;21095;-82
2021/04/22 06:22:51;;;;;;;9.20;6.97;;;;;;;15.02;47.88;96418.56;1703225;84;21484;-82
2021/04/22 06:25:21;;;;;;;10.98;7.58;;;;;;;13.79;51.13;96408.16;1726847;83;21154;-82
2021/04/22 06:27:50;;;;;;;;;;;;;;;13.04;53.04;96412.21;1717301;82;21194;-81
2021/04/22 06:30:20;;;;;;;11.03;7.97;;;;;;;12.32;54.83;96420.80;1721584;81;20199;-81
2021/04/22 06:32:47;;;;;;;11.15;8.05;;;;;;;12.07;55.06;96421.23;1719358;83;21487;-82
2021/04/22 06:35:16;;;;;;;9.33;7.30;;;;;;;12.69;54.67;96415.06;1708857;84;21206;-82
2021/04/22 06:37:44;;;;;;;10.03;7.25;;;;;;;13.91;52.38;96425.72;1708849;84;21126;-83
2021/04/22 06:40:17;;;;;;;9.88;7.35;;;;;;;14.17;49.74;96428.01;1766810;80;21629;-83
2021/04/22 06:42:48;;;;;;;10.60;7.53;;;;;;;14.26;49.55;96425.40;1767192;81;21165;-83
2021/04/22 06:45:17;;;;;;;10.93;7.85;;;;;;;14.87;47.50;96433.13;1697437;84;21151;-83
2021/04/22 06:47:47;;;;;;;9.50;7.10;;;;;;;14.83;46.79;96427.63;1713392;82;21127;-83
2021/04/22 06:50:19;;;;;;;11.15;7.60;;;;;;;14.87;47.42;96420.34;1709171;81;21542;-83
2021/04/22 06:52:48;;;;;;;11.08;8.15;;;;;;;15.18;47.03;96429.59;1696641;82;21131;-84
2021/04/22 06:55:20;;;;;;;12.05;8.43;;;;;;;15.05;46.36;96434.74;1708814;83;21120;-84
2021/04/22 06:57:49;;;;;;;10.68;8.20;;;;;;;15.58;46.58;96436.94;1705324;83;21163;-84
2021/04/22 07:00:21;;;;;;;13.53;9.25;;;;;;;16.62;44.42;96426.34;1777757;80;21143;-84
2021/04/22 07:02:50;;;;;;;13.88;8.98;;;;;;;16.70;44.46;96432.78;1767225;80;21593;-84
2021/04/22 07:05:19;;;;;;;10.00;8.00;;;;;;;16.32;44.21;96424.69;1770405;80;21114;-84
2021/04/22 07:07:47;;;;;;;11.83;8.75;;;;;;;17.06;45.26;96440.34;1705467;83;21159;-84
2021/04/22 07:10:16;;;;;;;10.90;7.83;;;;;;;17.64;42.78;96445.39;1684256;83;21147;-84
2021/04/22 07:12:44;;;;;;;10.63;7.42;;;;;;;17.83;41.21;96426.73;1723733;82;21498;-84
2021/04/22 07:15:12;;;;;;;9.80;7.67;;;;;;;16.87;41.27;96445.30;1692694;82;21539;-83
2021/04/22 07:17:40;;;;;;;10.15;7.92;;;;;;;15.07;44.62;96453.14;1692580;83;21168;-83
2021/04/22 07:20:18;;;;;;;10.60;7.92;;;;;;;14.98;45.79;96449.66;1725586;82;21195;-84
2021/04/22 07:22:46;;;;;;;10.18;8.15;;;;;;;16.27;43.74;96447.05;1713805;82;21169;-83
2021/04/22 07:25:15;;;;;;;10.75;8.30;;;;;;;15.25;44.32;96453.42;1788027;80;21143;-83
2021/04/22 07:27:43;;;;;;;10.38;8.38;;;;;;;15.32;45.23;96454.28;1779654;80;21110;-83
2021/04/22 07:30:13;;;;;;;13.88;8.30;;;;;;;16.59;43.85;96457.73;1769530;80;21178;-83
2021/04/22 07:32:41;;;;;;;13.62;10.08;;;;;;;18.19;41.43;96459.08;1753047;81;21512;-84
2021/04/22 07:35:11;;;;;;;11.22;9.80;;;;;;;19.14;41.47;96468.77;1753596;81;21642;-84
2021/04/22 07:37:40;;;;;;;11.53;10.23;;;;;;;20.73;40.42;96465.03;1764694;81;21148;-84
2021/04/22 07:40:10;;;;;;;11.00;9.78;;;;;;;22.14;38.96;96465.90;1763817;80;21134;-83
2021/04/22 07:42:39;;;;;;;11.35;9.63;;;;;;;22.31;38.03;96472.77;1771098;80;21245;-84
2021/04/22 07:45:08;;;;;;;12.58;11.18;;;;;;;22.72;36.88;96477.96;1754050;81;21362;-83
2021/04/22 07:47:36;;;;;;;11.68;10.35;;;;;;;21.71;33.90;96484.47;1765327;80;21671;-84
2021/04/22 07:50:07;;;;;;;12.43;9.23;;;;;;;21.52;36.58;96492.50;1773744;80;21163;-84
2021/04/22 07:52:34;;;;;;;15.38;10.53;;;;;;;22.39;32.38;96490.69;1755421;81;21229;-84
2021/04/22 07:55:08;;;;;;;12.78;9.75;;;;;;;21.20;35.83;96495.79;1757137;81;21185;-84
2021/04/22 07:57:36;;;;;;;13.30;10.32;;;;;;;20.69;34.43;96497.03;1767894;80;21205;-83
2021/04/22 08:00:07;;;;;;;10.80;9.08;;;;;;;20.30;37.61;96494.64;1764325;80;21122;-84
2021/04/22 08:02:35;;;;;;;9.90;8.30;;;;;;;20.70;35.38;96498.05;1762797;80;21492;-84
2021/04/22 08:05:05;;;;;;;11.83;8.85;;;;;;;21.48;34.38;96489.73;1765454;81;21129;-84
2021/04/22 08:07:32;;;;;;;;;;;;;;;19.96;33.33;96492.73;1763830;81;21225;-84
2021/04/22 08:10:00;;;;;;;12.47;10.18;;;;;;;18.94;35.43;96498.64;1755886;80;20239;-83
2021/04/22 08:12:28;;;;;;;13.65;11.78;;;;;;;18.01;37.31;96507.27;1746274;81;21343;-83
2021/04/22 08:14:59;;;;;;;13.80;10.80;;;;;;;17.12;38.97;96503.32;1756002;81;21110;-84
2021/04/22 08:17:26;;;;;;;14.28;10.90;;;;;;;17.45;40.14;96503.48;1755611;80;21161;-84
2021/04/22 08:19:55;;;;;;;15.18;12.00;;;;;;;16.94;39.37;96505.06;1711673;82;21178;-83
2021/04/22 08:22:23;;;;;;;16.85;12.45;;;;;;;15.99;41.02;96509.47;1702788;83;21126;-83
2021/04/22 08:24:50;;;;;;;14.90;12.13;;;;;;;15.89;42.46;96503.64;1717264;83;21154;-83
2021/04/22 08:27:17;;;;;;;17.27;12.03;;;;;;;15.96;42.38;96505.30;1716346;83;21143;-83
2021/04/22 08:29:44;;;;;;;17.17;12.63;;;;;;;15.86;42.80;96509.06;1711923;82;21106;-83
2021/04/22 08:32:11;;;;;;;16.02;12.58;;;;;;;15.22;42.92;96512.02;1701754;83;21477;-83
2021/04/22 08:34:38;;;;;;;17.77;12.15;;;;;;;14.66;43.72;96504.95;1700020;83;21180;-83
2021/04/22 08:37:05;;;;;;;14.98;12.33;;;;;;;14.30;44.62;96513.57;1692504;83;21150;-83
2021/04/22 08:39:34;;;;;;;18.57;13.70;;;;;;;13.98;45.54;96512.72;1742282;82;21241;-83
2021/04/22 08:42:04;;;;;;;14.65;10.40;;;;;;;13.72;46.31;96513.83;1720037;82;21165;-84
2021/04/22 08:44:34;;;;;;;20.15;14.33;;;;;;;13.57;47.74;96517.62;1708447;83;21198;-84
2021/04/22 08:47:02;;;;;;;23.55;16.57;;;;;;;13.20;48.36;96526.63;1719572;82;21161;-83
2021/04/22 08:49:30;;;;;;;20.95;15.25;;;;;;;12.83;49.30;96526.80;1706226;82;21131;-84
2021/04/22 08:51:58;;;;;;;23.12;17.52;;;;;;;12.89;49.83;96533.05;1717262;83;21168;-84
2021/04/22 08:54:25;;;;;;;23.75;18.52;;;;;;;13.20;50.35;96531.16;1714907;82;21191;-84
2021/04/22 08:56:52;;;;;;;23.35;18.30;;;;;;;13.23;51.10;96531.89;1723313;82;21142;-83
2021/04/22 08:59:20;;;;;;;22.98;17.85;;;;;;;13.75;51.57;96519.89;1717092;82;21533;-84
2021/04/22 09:01:47;;;;;;;22.80;18.02;;;;;;;14.21;51.24;96515.62;1728461;82;21160;-83
2021/04/22 09:04:14;;;;;;;23.75;18.40;;;;;;;13.98;49.53;96529.27;1711884;83;21156;-83
2021/04/22 09:06:41;;;;;;;24.82;19.07;;;;;;;13.59;50.60;96530.63;1697175;83;21165;-83
2021/04/22 09:09:09;;;;;;;25.60;19.12;;;;;;;13.43;51.12;96531.50;1712757;82;21357;-84
2021/04/22 09:11:47;;;;;;;21.40;16.67;;;;;;;13.97;52.69;96531.14;1716126;83;21174;-83
2021/04/22 09:14:23;;;;;;;25.15;19.77;;;;;;;14.43;50.88;96533.50;1722301;82;21166;-84
2021/04/22 09:16:51;;;;;;;26.73;21.20;;;;;;;14.20;50.96;96544.70;1759636;80;21148;-83
2021/04/22 09:19:26;;;;;;;30.00;21.70;;;;;;;14.02;51.43;96541.67;1744804;81;21235;-84
2021/04/22 09:21:57;;;;;;;27.80;21.52;;;;;;;13.63;51.55;96541.72;1736900;81;21131;-83
2021/04/22 09:24:27;;;;;;;30.17;22.10;;;;;;;13.32;52.19;96561.53;1768284;80;21131;-83
2021/04/22 09:27:02;;;;;;;28.35;23.52;;;;;;;12.96;52.28;96565.39;1758054;81;21508;-83
2021/04/22 09:29:49;;;;;;;30.55;23.80;;;;;;;12.45;53.50;96567.58;1756185;81;21087;-83
2021/04/22 09:32:22;;;;;;;31.12;24.45;;;;;;;12.13;54.66;96572.88;1762256;80;21135;-85
2021/04/22 09:35:12;;;;;;;31.25;22.02;;;;;;;11.63;55.46;96577.77;1753308;81;21158;-85
2021/04/22 09:37:50;;;;;;;29.63;23.15;;;;;;;11.61;55.86;96571.96;1692193;82;21136;-84
2021/04/22 09:40:38;;;;;;;27.58;21.02;;;;;;;11.40;55.77;96582.05;1764469;80;21475;-84
2021/04/22 09:43:11;;;;;;;27.37;22.27;;;;;;;11.33;57.26;96579.47;1740269;81;21114;-84
2021/04/22 09:45:45;;;;;;;24.30;17.25;;;;;;;10.82;58.18;96597.23;1768463;80;21536;-84
2021/04/22 09:48:26;;;;;;;21.23;15.72;;;;;;;10.66;59.05;96598.70;1742004;80;21218;-84
2021/04/22 09:50:52;;;;;;;22.77;16.10;;;;;;;10.20;60.51;96597.45;1755929;81;21567;-84
2021/04/22 09:53:23;;;;;;;23.77;18.25;;;;;;;9.45;62.48;96612.15;1755555;81;21114;-83
2021/04/22 09:55:49;;;;;;;17.80;13.75;;;;;;;8.86;63.09;96624.70;1742501;81;21512;-84
2021/04/22 09:58:28;;;;;;;19.75;15.35;;;;;;;8.42;65.53;96632.37;1706510;83;21165;-84
2021/04/22 10:00:57;;;;;;;23.32;16.67;;;;;;;8.19;65.19;96654.26;1720816;82;21179;-84
2021/04/22 10:03:24;;;;;;;14.03;11.28;;;;;;;8.08;65.13;96650.53;1697453;84;21189;-85
2021/04/22 10:06:01;;;;;;;18.05;13.45;;;;;;;8.00;66.47;96653.14;1694927;84;21525;-84
2021/04/22 10:08:29;;;;;;;14.65;11.18;;;;;;;7.85;66.48;96661.02;1740163;81;21147;-85
2021/04/22 10:11:08;;;;;;;14.75;10.03;;;;;;;7.73;66.09;96656.75;1705163;82;21209;-83
2021/04/22 10:13:49;;;;;;;13.68;9.23;;;;;;;7.63;66.80;96650.13;1700443;82;21185;-83
2021/04/22 10:16:17;;;;;;;14.05;10.40;;;;;;;7.21;67.77;96646.77;1698942;82;21129;-82
2021/04/22 10:18:48;;;;;;;12.45;7.97;;;;;;;7.08;67.90;96655.91;1710113;82;21095;-83
2021/04/22 10:21:16;;;;;;;10.48;7.25;;;;;;;7.04;68.60;96634.55;1685308;82;21559;-82
2021/04/22 10:23:45;;;;;;;7.72;5.58;;;;;;;6.89;68.85;96623.09;1693470;82;21134;-82
2021/04/22 10:26:20;;;;;;;9.10;6.17;;;;;;;6.69;69.22;96637.72;1719910;82;21203;-83
2021/04/22 10:28:48;;;;;;;10.65;8.08;;;;;;;6.51;70.16;96634.95;1696763;82;21479;-83
2021/04/22 10:31:16;;;;;;;11.88;7.45;;;;;;;6.46;70.14;96651.22;1721617;82;21200;-83
2021/04/22 10:33:46;;;;;;;11.18;8.08;;;;;;;6.27;71.06;96647.37;1727930;82;21191;-83
2021/04/22 10:36:17;;;;;;;9.78;7.37;;;;;;;6.16;71.34;96648.59;1693809;83;21184;-83
2021/04/22 10:38:50;;;;;;;8.65;6.90;;;;;;;6.10;72.00;96652.75;1726773;82;21112;-83
2021/04/22 10:41:21;;;;;;;7.05;5.22;;;;;;;6.11;72.16;96653.02;1715662;82;21096;-83
2021/04/22 10:43:49;;;;;;;8.58;6.10;;;;;;;6.10;71.73;96655.37;1728673;82;21204;-83
2021/04/22 10:46:19;;;;;;;7.65;5.20;;;;;;;6.07;71.62;96663.77;1736207;82;21533;-83
2021/04/22 10:48:46;;;;;;;7.67;5.87;;;;;;;6.03;71.29;96675.81;1703244;83;21131;-83
2021/04/22 10:51:13;;;;;;;8.93;6.03;;;;;;;5.92;71.45;96688.88;1701384;83;21105;-83
2021/04/22 10:53:41;;;;;;;7.58;6.05;;;;;;;5.83;71.98;96683.73;1738517;82;21514;-83
2021/04/22 10:56:08;;;;;;;6.70;4.78;;;;;;;5.72;71.99;96697.01;1722006;82;21219;-83
2021/04/22 10:58:43;;;;;;;7.92;5.62;;;;;;;5.60;73.11;96699.75;1695435;82;21115;-83
2021/04/22 11:01:14;;;;;;;11.97;7.87;;;;;;;5.52;73.26;96697.05;1717465;83;21139;-83
2021/04/22 11:03:47;;;;;;;;;;;;;;;5.41;73.50;96701.09;1739791;82;21148;-83
2021/04/22 11:06:20;;;;;;;5.95;3.72;;;;;;;5.32;74.12;96715.16;1725979;82;20135;-83
2021/04/22 11:08:55;;;;;;;8.18;6.00;;;;;;;5.22;74.42;96725.03;1700276;83;21156;-82
2021/04/22 11:11:30;;;;;;;6.30;4.28;;;;;;;4.99;75.00;96740.44;1704008;83;21532;-82
2021/04/22 11:14:13;;;;;;;4.62;2.90;;;;;;;4.87;74.42;96743.66;1726748;83;21143;-83
2021/04/22 11:16:51;;;;;;;3.37;2.47;;;;;;;4.93;74.36;96738.78;1767485;80;21106;-83
2021/04/22 11:19:22;;;;;;;3.72;2.70;;;;;;;4.96;74.18;96745.38;1756598;80;21177;-83
2021/04/22 11:21:57;;;;;;;6.78;2.98;;;;;;;4.91;74.02;96738.20;1772636;80;21123;-83
2021/04/22 11:24:34;;;;;;;2.50;2.20;;;;;;;4.90;73.68;96741.06;1722777;82;21147;-83
2021/04/22 11:27:09;;;;;;;3.22;2.05;;;;;;;4.95;73.64;96745.10;1739723;82;21833;-83
2021/04/22 11:29:57;;;;;;;2.98;2.02;;;;;;;4.85;73.83;96747.56;1743072;82;21197;-83
2021/04/22 11:32:31;;;;;;;2.00;1.80;;;;;;;4.80;73.95;96740.92;1701927;83;21507;-83
2021/04/22 11:35:10;;;;;;;2.42;1.90;;;;;;;4.70;74.05;96743.65;1701577;83;21476;-83
2021/04/22 11:37:48;;;;;;;2.40;1.72;;;;;;;4.71;73.75;96740.50;1727498;82;21175;-83
2021/04/22 11:40:21;;;;;;;2.52;1.90;;;;;;;4.82;73.64;96733.59;1719790;82;21514;-83
2021/04/22 11:42:51;;;;;;;5.95;3.02;;;;;;;4.91;73.47;96739.51;1699889;82;21091;-83